createdAt,value
2024-03-26T00:01:39.331Z,98510.60
2024-03-26T00:04:08.356Z,98510.48
2024-03-26T00:06:35.453Z,98511.65
2024-03-26T00:09:02.550Z,98511.08
2024-03-26T00:11:29.584Z,98506.89
2024-03-26T00:13:57.623Z,98502.52
2024-03-26T00:16:24.655Z,98495.66
2024-03-26T00:18:51.698Z,98492.98
2024-03-26T00:21:21.344Z,98490.48
2024-03-26T00:23:49.179Z,98492.65
2024-03-26T00:26:17.065Z,98495.60
2024-03-26T00:28:44.114Z,98497.45
2024-03-26T00:31:11.294Z,98496.77
2024-03-26T00:33:38.383Z,98496.20
2024-03-26T00:36:05.588Z,98496.54
2024-03-26T00:38:32.682Z,98496.30
2024-03-26T00:40:59.874Z,98496.80
2024-03-26T00:43:27.165Z,98491.21
2024-03-26T00:45:54.230Z,98498.34
2024-03-26T00:48:21.434Z,98500.21
2024-03-26T00:50:48.466Z,98502.48
2024-03-26T00:53:15.530Z,98501.27
2024-03-26T00:55:42.567Z,98497.05
2024-03-26T00:58:09.739Z,98501.23
2024-03-26T01:00:39.319Z,98501.92
2024-03-26T01:03:06.352Z,98494.80
2024-03-26T01:05:33.398Z,98489.09
2024-03-26T01:08:00.484Z,98492.16
2024-03-26T01:10:27.540Z,98489.98
2024-03-26T01:12:54.584Z,98495.41
2024-03-26T01:15:21.731Z,98502.27
2024-03-26T01:17:48.783Z,98500.02
2024-03-26T01:20:16.499Z,98498.85
2024-03-26T01:22:43.538Z,98502.32
2024-03-26T01:25:10.571Z,98503.17
2024-03-26T01:27:37.622Z,98506.82
2024-03-26T01:30:05.449Z,98504.49
2024-03-26T01:32:32.530Z,98503.18
2024-03-26T01:34:59.637Z,98509.80
2024-03-26T01:37:26.684Z,98509.79
2024-03-26T01:39:53.709Z,98511.19
2024-03-26T01:42:20.741Z,98514.64
2024-03-26T01:44:47.812Z,98513.40
2024-03-26T01:47:15.096Z,98513.60
2024-03-26T01:49:42.142Z,98517.25
2024-03-26T01:52:09.187Z,98519.73
2024-03-26T01:54:36.225Z,98523.56
2024-03-26T01:57:03.349Z,98521.67
2024-03-26T01:59:30.381Z,98527.35
2024-03-26T02:01:57.430Z,98528.23
2024-03-26T02:04:24.546Z,98538.61
2024-03-26T02:06:51.616Z,98536.30
2024-03-26T02:09:18.698Z,98538.19
2024-03-26T02:11:45.846Z,98542.65
2024-03-26T02:14:13.000Z,98549.96
2024-03-26T02:16:41.101Z,98557.02
2024-03-26T02:19:08.732Z,98549.52
2024-03-26T02:21:35.778Z,98551.86
2024-03-26T02:24:03.184Z,98552.80
2024-03-26T02:26:30.220Z,98547.40
2024-03-26T02:28:57.284Z,98543.76
2024-03-26T02:31:24.320Z,98545.65
2024-03-26T02:33:51.364Z,98542.85
2024-03-26T02:36:18.387Z,98546.52
2024-03-26T02:38:45.497Z,98553.96
2024-03-26T02:41:12.608Z,98561.17
2024-03-26T02:43:39.855Z,98564.70
2024-03-26T02:46:06.899Z,98565.85
2024-03-26T02:48:33.922Z,98565.52
2024-03-26T02:51:01.158Z,98567.00
2024-03-26T02:53:28.554Z,98564.38
2024-03-26T02:55:55.623Z,98568.90
2024-03-26T02:58:22.799Z,98573.80
2024-03-26T03:00:49.836Z,98570.02
2024-03-26T03:03:16.901Z,98577.55
2024-03-26T03:05:44.001Z,98584.23
2024-03-26T03:08:11.056Z,98590.25
2024-03-26T03:10:38.183Z,98597.53
2024-03-26T03:13:05.267Z,98601.57
2024-03-26T03:15:32.301Z,98601.92
2024-03-26T03:17:59.381Z,98607.59
2024-03-26T03:20:26.573Z,98606.25
2024-03-26T03:22:53.632Z,98619.88
2024-03-26T03:25:21.382Z,98621.72
2024-03-26T03:27:48.441Z,98627.50
2024-03-26T03:30:15.486Z,98631.20
2024-03-26T03:32:42.541Z,98633.21
2024-03-26T03:35:09.580Z,98632.04
2024-03-26T03:37:37.438Z,98631.23
2024-03-26T03:40:05.506Z,98633.55
2024-03-26T03:42:32.548Z,98634.11
2024-03-26T03:44:59.573Z,98631.25
2024-03-26T03:47:26.661Z,98636.91
2024-03-26T03:49:53.720Z,98639.48
2024-03-26T03:52:20.780Z,98642.52
2024-03-26T03:54:47.838Z,98649.48
2024-03-26T03:57:14.908Z,98651.90
2024-03-26T03:59:41.957Z,98656.54
2024-03-26T04:02:08.991Z,98660.89
2024-03-26T04:04:36.135Z,98667.31
2024-03-26T04:07:03.247Z,98666.50
2024-03-26T04:09:30.297Z,98667.11
2024-03-26T04:11:57.353Z,98674.55
2024-03-26T04:14:24.493Z,98681.05
2024-03-26T04:16:51.533Z,98688.09
2024-03-26T04:19:18.563Z,98691.73
2024-03-26T04:21:45.606Z,98695.35
2024-03-26T04:24:12.672Z,98695.79
2024-03-26T04:26:39.835Z,98701.60
2024-03-26T04:29:06.864Z,98705.05
2024-03-26T04:31:34.235Z,98715.94
2024-03-26T04:34:01.481Z,98716.82
2024-03-26T04:36:29.750Z,98719.02
2024-03-26T04:38:56.812Z,98723.09
2024-03-26T04:41:25.015Z,98727.02
2024-03-26T04:43:52.502Z,98735.40
2024-03-26T04:46:19.594Z,98734.08
2024-03-26T04:48:46.652Z,98737.95
2024-03-26T04:51:13.693Z,98744.81
2024-03-26T04:53:40.904Z,98747.23
2024-03-26T04:56:08.058Z,98750.70
2024-03-26T04:58:35.101Z,98752.52
2024-03-26T05:01:02.149Z,98757.52
2024-03-26T05:03:29.198Z,98759.95
2024-03-26T05:05:56.238Z,98766.09
2024-03-26T05:08:23.368Z,98766.31
2024-03-26T05:10:50.736Z,98767.41
2024-03-26T05:13:17.790Z,98771.72
2024-03-26T05:15:44.865Z,98774.54
2024-03-26T05:18:11.900Z,98780.13
2024-03-26T05:20:38.938Z,98785.26
2024-03-26T05:23:06.079Z,98788.63
2024-03-26T05:25:33.125Z,98790.72
2024-03-26T05:28:00.153Z,98797.33
2024-03-26T05:30:27.200Z,98792.16
2024-03-26T05:32:54.312Z,98794.86
2024-03-26T05:35:21.554Z,98798.25
2024-03-26T05:37:49.086Z,98799.03
2024-03-26T05:40:16.656Z,98800.68
2024-03-26T05:42:43.686Z,98800.83
2024-03-26T05:45:10.726Z,98801.98
2024-03-26T05:47:37.788Z,98804.02
2024-03-26T05:50:05.936Z,98804.86
2024-03-26T05:52:32.980Z,98807.66
2024-03-26T05:55:00.226Z,98811.67
2024-03-26T05:57:27.417Z,98812.05
2024-03-26T05:59:54.521Z,98814.23
2024-03-26T06:02:21.595Z,98814.27
2024-03-26T06:04:48.634Z,98819.11
2024-03-26T06:07:15.715Z,98819.31
2024-03-26T06:09:42.777Z,98825.35
2024-03-26T06:12:10.488Z,98823.94
2024-03-26T06:14:37.633Z,98827.95
2024-03-26T06:17:04.795Z,98824.86
2024-03-26T06:19:31.848Z,98829.45
2024-03-26T06:22:02.458Z,98832.20
2024-03-26T06:24:29.543Z,98836.96
2024-03-26T06:26:56.660Z,98836.15
2024-03-26T06:29:23.858Z,98838.48
2024-03-26T06:31:50.957Z,98841.23
2024-03-26T06:34:18.047Z,98840.02
2024-03-26T06:36:45.114Z,98842.73
2024-03-26T06:39:14.499Z,98841.48
2024-03-26T06:41:41.550Z,98842.52
2024-03-26T06:44:08.840Z,98843.54
2024-03-26T06:46:35.922Z,98854.91
2024-03-26T06:49:03.058Z,98856.33
2024-03-26T06:51:30.214Z,98860.96
2024-03-26T06:53:57.488Z,98866.35
2024-03-26T06:56:26.016Z,98866.98
2024-03-26T06:58:53.081Z,98865.09
2024-03-26T07:01:21.468Z,98870.01
2024-03-26T07:03:48.599Z,98868.15
2024-03-26T07:06:15.688Z,98876.44
2024-03-26T07:08:44.999Z,98874.02
2024-03-26T07:11:12.387Z,98878.77
2024-03-26T07:13:39.461Z,98883.61
2024-03-26T07:16:06.858Z,98885.60
2024-03-26T07:18:33.959Z,98888.41
2024-03-26T07:21:01.087Z,98891.04
2024-03-26T07:23:28.213Z,98892.83
2024-03-26T07:25:55.336Z,98899.70
2024-03-26T07:28:22.461Z,98900.17
2024-03-26T07:30:49.655Z,98904.75
2024-03-26T07:33:16.815Z,98904.57
2024-03-26T07:35:44.592Z,98915.10
2024-03-26T07:38:11.797Z,98912.46
2024-03-26T07:40:38.887Z,98912.34
2024-03-26T07:43:13.503Z,98909.47
2024-03-26T07:45:48.581Z,98909.33
2024-03-26T07:48:16.319Z,98909.23
2024-03-26T07:50:43.714Z,98908.18
2024-03-26T07:53:10.954Z,98915.71
2024-03-26T07:55:38.052Z,98918.25
2024-03-26T07:58:05.307Z,98918.44
2024-03-26T08:00:32.616Z,98920.91
2024-03-26T08:02:59.785Z,98922.89
2024-03-26T08:05:26.949Z,98925.28
2024-03-26T08:07:57.157Z,98928.05
2024-03-26T08:10:24.395Z,98933.74
2024-03-26T08:12:51.815Z,98931.90
2024-03-26T08:15:20.853Z,98936.73
2024-03-26T08:17:48.575Z,98933.70
2024-03-26T08:20:15.713Z,98931.54
2024-03-26T08:22:42.967Z,98941.14
2024-03-26T08:25:11.126Z,98935.81
2024-03-26T08:27:40.628Z,98932.64
2024-03-26T08:30:11.643Z,98939.15
2024-03-26T08:32:39.067Z,98934.02
2024-03-26T08:35:09.353Z,98939.05
2024-03-26T08:37:36.550Z,98939.02
2024-03-26T08:40:04.867Z,98944.09
2024-03-26T08:42:31.974Z,98941.11
2024-03-26T08:44:59.124Z,98938.95
2024-03-26T08:47:26.315Z,98937.30
2024-03-26T08:49:53.403Z,98937.81
2024-03-26T08:52:20.478Z,98933.63
2024-03-26T08:54:47.563Z,98937.45
2024-03-26T08:57:16.260Z,98940.88
2024-03-26T08:59:44.638Z,98946.69
2024-03-26T09:02:11.742Z,98945.27
2024-03-26T09:04:38.862Z,98935.91
2024-03-26T09:07:05.939Z,98943.11
2024-03-26T09:09:33.027Z,98940.49
2024-03-26T09:12:00.194Z,98944.46
2024-03-26T09:14:27.398Z,98941.06
2024-03-26T09:16:54.491Z,98943.14
2024-03-26T09:19:21.553Z,98949.65
2024-03-26T09:21:48.627Z,98944.18
2024-03-26T09:24:15.728Z,98939.77
2024-03-26T09:26:42.805Z,98942.76
2024-03-26T09:29:09.882Z,98942.88
2024-03-26T09:31:36.999Z,98944.80
2024-03-26T09:34:04.078Z,98943.86
2024-03-26T09:36:31.267Z,98951.05
2024-03-26T09:39:07.278Z,98952.63
2024-03-26T09:41:37.438Z,98951.46
2024-03-26T09:44:05.572Z,98955.52
2024-03-26T09:46:32.658Z,98952.75
2024-03-26T09:48:59.798Z,98953.02
2024-03-26T09:51:27.606Z,98959.70
2024-03-26T09:53:55.656Z,98958.48
2024-03-26T09:56:22.781Z,98951.14
2024-03-26T09:58:50.028Z,98959.48
2024-03-26T10:01:17.690Z,98967.69
2024-03-26T10:03:44.784Z,98964.57
2024-03-26T10:06:11.896Z,98958.58
2024-03-26T10:08:38.982Z,98964.79
2024-03-26T10:11:06.100Z,98965.79
2024-03-26T10:13:33.341Z,98968.98
2024-03-26T10:16:01.145Z,98967.95
2024-03-26T10:18:28.994Z,98971.55
2024-03-26T10:20:56.314Z,98968.98
2024-03-26T10:23:23.498Z,98964.02
2024-03-26T10:25:50.858Z,98973.16
2024-03-26T10:28:17.941Z,98972.47
2024-03-26T10:30:45.133Z,98976.26
2024-03-26T10:33:12.214Z,98977.60
2024-03-26T10:35:39.309Z,98982.77
2024-03-26T10:38:13.107Z,98981.40
2024-03-26T10:40:59.997Z,98978.87
2024-03-26T10:43:27.717Z,98981.67
2024-03-26T10:46:03.250Z,98978.48
2024-03-26T10:48:37.775Z,98970.66
2024-03-26T10:51:06.852Z,98970.08
2024-03-26T10:53:34.026Z,98980.45
2024-03-26T10:56:01.094Z,98983.69
2024-03-26T10:58:28.151Z,98977.17
2024-03-26T11:00:56.869Z,98972.20
2024-03-26T11:03:23.982Z,98984.08
2024-03-26T11:05:51.049Z,98984.49
2024-03-26T11:08:19.023Z,98973.45
2024-03-26T11:11:03.902Z,98979.71
2024-03-26T11:13:31.641Z,98985.05
2024-03-26T11:15:58.729Z,98972.98
2024-03-26T11:18:33.642Z,98973.74
2024-03-26T11:21:05.287Z,98978.14
2024-03-26T11:23:33.987Z,98977.91
2024-03-26T11:26:01.291Z,98984.01
2024-03-26T11:28:28.575Z,98984.31
2024-03-26T11:30:56.654Z,98984.91
2024-03-26T11:33:25.418Z,98988.55
2024-03-26T11:35:53.126Z,98988.83
2024-03-26T11:38:20.287Z,98988.88
2024-03-26T11:40:50.671Z,98984.88
2024-03-26T11:43:18.306Z,98983.45
2024-03-26T11:45:45.390Z,98977.91
2024-03-26T11:48:16.490Z,98983.52
2024-03-26T11:50:44.760Z,98976.45
2024-03-26T11:53:11.873Z,98988.27
2024-03-26T11:55:39.767Z,98992.84
2024-03-26T11:58:08.589Z,98991.09
2024-03-26T12:00:39.988Z,98994.30
2024-03-26T12:03:10.922Z,99001.45
2024-03-26T12:05:38.028Z,98993.97
2024-03-26T12:08:05.283Z,98997.84
2024-03-26T12:10:32.478Z,98997.02
2024-03-26T12:12:59.600Z,99004.70
2024-03-26T12:15:26.773Z,99002.98
2024-03-26T12:17:53.907Z,99003.27
2024-03-26T12:20:21.044Z,99005.84
2024-03-26T12:22:48.931Z,99003.04
2024-03-26T12:25:16.068Z,99002.75
2024-03-26T12:27:46.424Z,99001.00
2024-03-26T12:30:13.950Z,99002.59
2024-03-26T12:32:41.078Z,98999.89
2024-03-26T12:35:09.722Z,98997.88
2024-03-26T12:37:40.187Z,98997.98
2024-03-26T12:40:08.193Z,99000.77
2024-03-26T12:42:36.633Z,99003.56
2024-03-26T12:45:04.377Z,99009.63
2024-03-26T12:47:31.530Z,99006.77
2024-03-26T12:50:01.512Z,99013.74
2024-03-26T12:52:31.229Z,99012.75
2024-03-26T12:54:58.324Z,99012.41
2024-03-26T12:57:25.379Z,99012.48
2024-03-26T12:59:52.489Z,99017.98
2024-03-26T13:02:19.557Z,99014.76
2024-03-26T13:04:46.626Z,99012.80
2024-03-26T13:07:13.708Z,99019.08
2024-03-26T13:09:40.760Z,99012.60
2024-03-26T13:12:08.153Z,99009.08
2024-03-26T13:14:35.555Z,99012.11
2024-03-26T13:17:02.766Z,99019.70
2024-03-26T13:19:32.574Z,99010.36
2024-03-26T13:21:59.637Z,99013.64
2024-03-26T13:24:26.688Z,99011.11
2024-03-26T13:26:53.799Z,99023.20
2024-03-26T13:29:20.868Z,99023.00
2024-03-26T13:31:47.930Z,99021.91
2024-03-26T13:34:14.976Z,99022.60
2024-03-26T13:36:42.905Z,99028.73
2024-03-26T13:39:10.430Z,99032.34
2024-03-26T13:41:37.593Z,99033.92
2024-03-26T13:44:04.769Z,99037.88
2024-03-26T13:46:32.136Z,99038.83
2024-03-26T13:48:59.229Z,99037.47
2024-03-26T13:51:27.338Z,99036.02
2024-03-26T13:53:54.413Z,99037.18
2024-03-26T13:56:21.473Z,99035.19
2024-03-26T13:58:48.530Z,99040.48
2024-03-26T14:01:15.590Z,99042.33
2024-03-26T14:03:42.654Z,99043.83
2024-03-26T14:06:09.759Z,99047.30
2024-03-26T14:08:37.402Z,99046.65
2024-03-26T14:11:04.975Z,99049.30
2024-03-26T14:13:32.035Z,99054.80
2024-03-26T14:15:59.128Z,99059.58
2024-03-26T14:18:26.202Z,99060.96
2024-03-26T14:20:53.285Z,99064.84
2024-03-26T14:23:20.337Z,99068.50
2024-03-26T14:25:47.436Z,99058.80
2024-03-26T14:28:14.772Z,99059.98
2024-03-26T14:30:41.826Z,99059.98
2024-03-26T14:33:09.727Z,99065.23
2024-03-26T14:35:36.813Z,99067.09
2024-03-26T14:38:04.027Z,99068.85
2024-03-26T14:40:31.268Z,99073.70
2024-03-26T14:42:58.340Z,99072.73
2024-03-26T14:45:25.401Z,99077.16
2024-03-26T14:47:53.005Z,99079.20
2024-03-26T14:50:20.063Z,99081.70
2024-03-26T14:52:47.194Z,99094.29
2024-03-26T14:55:14.369Z,99095.15
2024-03-26T14:57:42.099Z,99094.40
2024-03-26T15:00:12.698Z,99093.44
2024-03-26T15:02:39.751Z,99095.65
2024-03-26T15:05:09.314Z,99100.85
2024-03-26T15:07:36.379Z,99102.88
2024-03-26T15:10:05.054Z,99102.61
2024-03-26T15:12:32.127Z,99108.71
2024-03-26T15:14:59.214Z,99103.43
2024-03-26T15:17:26.425Z,99108.48
2024-03-26T15:19:53.510Z,99107.02
2024-03-26T15:22:20.599Z,99111.27
2024-03-26T15:24:47.935Z,99111.88
2024-03-26T15:27:14.988Z,99111.67
2024-03-26T15:30:00.869Z,99113.81
2024-03-26T15:32:28.322Z,99117.14
2024-03-26T15:34:56.393Z,99120.62
2024-03-26T15:37:23.464Z,99129.40
2024-03-26T15:39:50.517Z,99129.80
2024-03-26T15:42:17.924Z,99129.29
2024-03-26T15:44:45.039Z,99126.68
2024-03-26T15:47:13.271Z,99124.86
2024-03-26T15:49:40.496Z,99127.68
2024-03-26T15:52:07.947Z,99127.71
2024-03-26T15:54:35.012Z,99129.82
2024-03-26T15:57:02.088Z,99137.33
2024-03-26T15:59:29.211Z,99133.56
2024-03-26T16:01:56.323Z,99133.45
2024-03-26T16:04:24.639Z,99132.64
2024-03-26T16:06:52.320Z,99133.41
2024-03-26T16:09:22.191Z,99139.60
2024-03-26T16:11:49.267Z,99144.04
2024-03-26T16:14:16.983Z,99146.54
2024-03-26T16:16:44.555Z,99148.02
2024-03-26T16:19:13.935Z,99148.93
2024-03-26T16:21:42.341Z,99150.13
2024-03-26T16:24:09.572Z,99150.98
2024-03-26T16:26:36.806Z,99160.73
2024-03-26T16:29:05.231Z,99166.13
2024-03-26T16:31:32.294Z,99168.55
2024-03-26T16:34:00.138Z,99176.20
2024-03-26T16:36:28.211Z,99179.24
2024-03-26T16:38:55.333Z,99182.42
2024-03-26T16:41:36.502Z,99184.38
2024-03-26T16:44:03.710Z,99185.27
2024-03-26T16:46:30.929Z,99186.20
2024-03-26T16:48:58.056Z,99187.47
2024-03-26T16:51:25.561Z,99189.63
2024-03-26T16:53:52.706Z,99188.67
2024-03-26T16:56:19.823Z,99191.70
2024-03-26T16:58:49.976Z,99191.70
2024-03-26T17:01:17.051Z,99196.41
2024-03-26T17:03:44.179Z,99198.20
2024-03-26T17:06:14.056Z,99200.81
2024-03-26T17:08:41.449Z,99199.77
2024-03-26T17:11:08.691Z,99199.46
2024-03-26T17:13:35.788Z,99196.02
2024-03-26T17:16:03.040Z,99196.42
2024-03-26T17:18:31.149Z,99201.17
2024-03-26T17:20:58.703Z,99199.80
2024-03-26T17:23:26.045Z,99203.98
2024-03-26T17:25:53.410Z,99205.06
2024-03-26T17:28:20.692Z,99207.88
2024-03-26T17:30:47.949Z,99208.23
2024-03-26T17:33:16.522Z,99208.80
2024-03-26T17:35:44.561Z,99212.14
2024-03-26T17:38:12.128Z,99210.95
2024-03-26T17:40:42.341Z,99212.23
2024-03-26T17:43:09.701Z,99211.98
2024-03-26T17:45:36.804Z,99215.04
2024-03-26T17:48:04.613Z,99216.36
2024-03-26T17:50:34.627Z,99224.31
2024-03-26T17:53:01.876Z,99224.50
2024-03-26T17:55:29.234Z,99222.76
2024-03-26T17:57:56.485Z,99221.91
2024-03-26T18:00:23.838Z,99224.45
2024-03-26T18:02:52.326Z,99225.82
2024-03-26T18:05:19.992Z,99230.60
2024-03-26T18:07:47.257Z,99232.96
2024-03-26T18:10:14.408Z,99232.86
2024-03-26T18:12:42.141Z,99236.39
2024-03-26T18:15:10.620Z,99242.77
2024-03-26T18:17:38.001Z,99238.98
2024-03-26T18:20:06.448Z,99240.83
2024-03-26T18:22:33.514Z,99240.27
2024-03-26T18:25:01.472Z,99237.45
2024-03-26T18:27:28.686Z,99240.90
2024-03-26T18:29:55.962Z,99236.67
2024-03-26T18:32:23.036Z,99244.80
2024-03-26T18:34:51.072Z,99248.41
2024-03-26T18:37:18.155Z,99253.41
2024-03-26T18:39:45.210Z,99252.70
2024-03-26T18:42:12.519Z,99252.68
2024-03-26T18:44:39.927Z,99254.02
2024-03-26T18:47:06.990Z,99258.32
2024-03-26T18:49:34.055Z,99262.58
2024-03-26T18:52:01.130Z,99268.27
2024-03-26T18:54:28.534Z,99268.59
2024-03-26T18:56:55.629Z,99272.06
2024-03-26T18:59:24.302Z,99270.67
2024-03-26T19:01:51.462Z,99269.78
2024-03-26T19:04:18.631Z,99267.97
2024-03-26T19:06:45.710Z,99266.52
2024-03-26T19:09:13.577Z,99256.23
2024-03-26T19:11:40.723Z,99254.61
2024-03-26T19:14:08.209Z,99256.89
2024-03-26T19:16:35.601Z,99256.08
2024-03-26T19:19:02.940Z,99260.63
2024-03-26T19:21:30.000Z,99256.05
2024-03-26T19:23:57.088Z,99264.69
2024-03-26T19:26:24.141Z,99266.36
2024-03-26T19:28:51.208Z,99266.08
2024-03-26T19:31:18.459Z,99269.59
2024-03-26T19:33:46.008Z,99272.92
2024-03-26T19:36:15.531Z,99271.06
2024-03-26T19:38:42.616Z,99272.14
2024-03-26T19:41:09.807Z,99275.72
2024-03-26T19:43:39.804Z,99280.07
2024-03-26T19:46:08.077Z,99285.14
2024-03-26T19:48:36.240Z,99290.09
2024-03-26T19:51:07.114Z,99291.98
2024-03-26T19:53:34.527Z,99296.45
2024-03-26T19:56:07.108Z,99297.77
2024-03-26T19:58:34.448Z,99300.64
2024-03-26T20:01:02.349Z,99306.27
2024-03-26T20:03:29.877Z,99309.63
2024-03-26T20:06:01.596Z,99311.59
2024-03-26T20:08:28.773Z,99310.95
2024-03-26T20:10:56.599Z,99315.81
2024-03-26T20:13:23.796Z,99317.58
2024-03-26T20:15:53.963Z,99314.46
2024-03-26T20:18:21.164Z,99315.74
2024-03-26T20:20:56.105Z,99315.31
2024-03-26T20:23:23.740Z,99314.18
2024-03-26T20:26:04.988Z,99316.53
2024-03-26T20:28:32.363Z,99314.56
2024-03-26T20:31:11.984Z,99312.14
2024-03-26T20:33:40.707Z,99314.42
2024-03-26T20:36:08.389Z,99318.52
2024-03-26T20:38:35.472Z,99322.25
2024-03-26T20:41:02.994Z,99326.45
2024-03-26T20:43:30.774Z,99332.40
2024-03-26T20:45:57.972Z,99329.88
2024-03-26T20:48:25.182Z,99334.09
2024-03-26T20:50:52.278Z,99332.55
2024-03-26T20:53:20.579Z,99329.98
2024-03-26T20:55:48.747Z,99327.11
2024-03-26T20:58:16.000Z,99326.84
2024-03-26T21:00:43.292Z,99329.70
2024-03-26T21:03:10.540Z,99333.40
2024-03-26T21:05:37.617Z,99339.02
2024-03-26T21:08:05.420Z,99344.11
2024-03-26T21:10:32.661Z,99346.39
2024-03-26T21:12:59.749Z,99342.92
2024-03-26T21:15:29.331Z,99340.35
2024-03-26T21:17:59.910Z,99342.47
2024-03-26T21:20:27.480Z,99347.89
2024-03-26T21:22:55.025Z,99355.71
2024-03-26T21:25:23.002Z,99361.46
2024-03-26T21:27:58.013Z,99362.35
2024-03-26T21:30:26.155Z,99366.26
2024-03-26T21:32:53.295Z,99368.05
2024-03-26T21:35:20.371Z,99370.34
2024-03-26T21:37:47.478Z,99371.61
2024-03-26T21:40:16.959Z,99373.90
2024-03-26T21:42:44.058Z,99373.96
2024-03-26T21:45:11.175Z,99372.95
2024-03-26T21:47:38.350Z,99371.59
2024-03-26T21:50:06.395Z,99371.58
2024-03-26T21:52:33.979Z,99365.52
2024-03-26T21:55:45.122Z,99366.89
2024-03-26T22:37:48.124Z,99371.89
2024-03-26T22:55:08.405Z,99381.80
2024-03-26T23:37:13.314Z,99381.50
